Terminal Aerodrome Forecast
Issued by NWS Blacksburg, VA

Home | Current Version | Previous Version | Text Only | Print | Product List | Glossary On
Versions: 1 2 3 4 5 6 7 8 9 10 11 12 13 14 15 16 17 18 19 20 21 22 23 24 25 26 27 28 29 30 31 32 33 34 35 36 37 38 39 40 41 42 43 44 45 46 47 48 49
000
FTUS41 KRNK 192327
TAFDAN
TAF
KDAN 192327Z 2000/2024 08010KT 4SM RA BR OVC006
      TEMPO 2000/2002 2SM +RA BR OVC003
     FM200400 VRB06KT 6SM BR OVC012
     FM201000 24008KT P6SM BKN050
     FM201300 22012KT P6SM SCT060
     FM201900 21015G25KT 4SM -TSRA BKN035CB
     FM202300 23010KT P6SM SCT060=

USA.gov is the U.S. government's official web portal to all federal, state and local government web resources and services.